TimeEST,TemperatureF,Dew PointF,Humidity,Sea Level PressureIn,VisibilityMPH,Wind Direction,Wind SpeedMPH,Gust SpeedMPH,PrecipitationIn,Events,Conditions,WindDirDegrees,DateUTC
12:15 AM,66.2,59.9,80,30.12,10.0,Calm,Calm,-,N/A,,Clear,0,2013-01-15 05:15:00
12:35 AM,66.0,59.9,81,30.12,10.0,South,3.5,-,N/A,,Clear,190,2013-01-15 05:35:00
12:55 AM,65.5,59.9,82,30.12,10.0,Calm,Calm,-,N/A,,Clear,0,2013-01-15 05:55:00
1:15 AM,65.7,59.9,82,30.12,10.0,Calm,Calm,-,N/A,,Scattered Clouds,0,2013-01-15 06:15:00
1:35 AM,65.7,59.9,82,30.12,10.0,Calm,Calm,-,N/A,,Overcast,0,2013-01-15 06:35:00
1:55 AM,65.5,59.9,82,30.12,10.0,Calm,Calm,-,N/A,,Overcast,0,2013-01-15 06:55:00
2:15 AM,65.5,59.9,82,30.11,10.0,South,4.6,-,N/A,,Overcast,180,2013-01-15 07:15:00
2:35 AM,65.5,59.9,82,30.11,10.0,South,3.5,-,N/A,,Overcast,180,2013-01-15 07:35:00
2:55 AM,65.3,59.9,83,30.11,10.0,Calm,Calm,-,N/A,,Overcast,0,2013-01-15 07:55:00
3:15 AM,64.6,59.9,85,30.12,10.0,NNW,4.6,-,N/A,,Overcast,330,2013-01-15 08:15:00
3:35 AM,63.7,59.9,87,30.11,10.0,Calm,Calm,-,N/A,,Overcast,0,2013-01-15 08:35:00
4:15 AM,63.0,59.9,90,30.11,7.0,Calm,Calm,-,N/A,,Overcast,0,2013-01-15 09:15:00
4:35 AM,62.6,59.9,91,30.11,7.0,NNW,6.9,-,N/A,,Overcast,330,2013-01-15 09:35:00
4:55 AM,60.1,57.4,91,30.11,4.0,North,4.6,-,0.02,Rain,Heavy Rain,350,2013-01-15 09:55:00
5:15 AM,55.6,53.4,92,30.11,10.0,NNE,8.1,-,0.02,Rain,Light Rain,20,2013-01-15 10:15:00
5:55 AM,53.4,51.8,94,30.11,10.0,NE,5.8,-,0.02,,Overcast,50,2013-01-15 10:55:00
6:15 AM,52.7,50.9,94,30.11,10.0,NNE,4.6,-,N/A,,Overcast,20,2013-01-15 11:15:00
6:35 AM,52.5,51.1,95,30.11,10.0,North,4.6,-,N/A,,Overcast,360,2013-01-15 11:35:00
6:55 AM,52.3,50.9,95,30.12,10.0,Calm,Calm,-,N/A,,Overcast,0,2013-01-15 11:55:00
7:15 AM,52.2,50.9,95,30.12,10.0,Calm,Calm,-,N/A,,Overcast,0,2013-01-15 12:15:00
7:35 AM,52.2,50.9,95,30.14,10.0,North,3.5,-,N/A,,Overcast,10,2013-01-15 12:35:00
7:55 AM,52.2,51.1,96,30.15,10.0,North,3.5,-,N/A,,Overcast,360,2013-01-15 12:55:00
8:15 AM,52.2,51.1,96,30.16,10.0,North,4.6,-,N/A,,Overcast,10,2013-01-15 13:15:00
8:35 AM,52.2,50.9,95,30.17,10.0,North,3.5,-,N/A,,Overcast,360,2013-01-15 13:35:00
8:55 AM,52.2,50.9,95,30.17,10.0,NNE,3.5,-,N/A,,Overcast,20,2013-01-15 13:55:00
9:15 AM,52.5,50.9,94,30.18,10.0,North,4.6,-,N/A,,Overcast,360,2013-01-15 14:15:00
9:35 AM,52.3,50.5,94,30.18,10.0,NNE,3.5,-,N/A,,Overcast,20,2013-01-15 14:35:00
9:55 AM,52.7,50.5,92,30.19,10.0,North,4.6,-,N/A,,Overcast,10,2013-01-15 14:55:00
10:15 AM,52.7,50.4,92,30.19,7.0,NNE,5.8,-,N/A,,Overcast,20,2013-01-15 15:15:00
10:35 AM,52.7,50.5,92,30.19,7.0,NNE,4.6,-,N/A,,Overcast,20,2013-01-15 15:35:00
10:55 AM,53.1,50.2,90,30.18,10.0,North,4.6,-,N/A,,Overcast,10,2013-01-15 15:55:00
11:15 AM,52.9,50.0,90,30.18,7.0,NNE,4.6,-,N/A,,Overcast,20,2013-01-15 16:15:00
11:35 AM,52.9,50.2,91,30.17,7.0,NNE,4.6,-,N/A,,Overcast,30,2013-01-15 16:35:00
11:55 AM,53.2,50.4,90,30.16,5.0,NNE,6.9,-,N/A,,Overcast,20,2013-01-15 16:55:00
12:15 PM,53.1,50.4,91,30.16,4.0,NE,4.6,-,N/A,,Overcast,40,2013-01-15 17:15:00
12:35 PM,53.1,50.0,89,30.14,7.0,NNE,5.8,-,N/A,,Overcast,20,2013-01-15 17:35:00
12:55 PM,52.7,49.8,90,30.13,4.0,NE,5.8,-,N/A,,Overcast,40,2013-01-15 17:55:00
1:15 PM,52.3,49.6,91,30.13,3.0,NNE,4.6,-,N/A,,Overcast,20,2013-01-15 18:15:00
1:35 PM,52.2,49.8,92,30.12,3.0,NNE,6.9,-,N/A,,Overcast,20,2013-01-15 18:35:00
1:55 PM,52.2,49.6,91,30.12,4.0,NNE,6.9,-,N/A,,Overcast,30,2013-01-15 18:55:00
2:35 PM,52.7,49.8,90,30.11,4.0,NE,6.9,-,N/A,,Overcast,40,2013-01-15 19:35:00
2:55 PM,53.1,50.0,89,30.11,5.0,NE,4.6,-,N/A,,Overcast,40,2013-01-15 19:55:00
3:15 PM,53.1,50.0,89,30.11,5.0,NNE,3.5,-,N/A,,Overcast,20,2013-01-15 20:15:00
3:35 PM,52.7,49.5,89,30.11,5.0,NNE,4.6,-,N/A,,Overcast,20,2013-01-15 20:35:00
3:55 PM,52.5,49.3,89,30.11,5.0,NNE,6.9,-,N/A,,Overcast,20,2013-01-15 20:55:00
4:15 PM,52.0,49.1,90,30.12,7.0,NNE,5.8,-,N/A,,Overcast,20,2013-01-15 21:15:00
4:35 PM,51.8,48.9,90,30.12,7.0,NNE,5.8,-,N/A,,Overcast,30,2013-01-15 21:35:00
4:55 PM,51.3,48.4,90,30.12,5.0,NNE,6.9,-,N/A,,Overcast,20,2013-01-15 21:55:00
5:15 PM,50.9,48.4,91,30.11,5.0,NE,4.6,-,N/A,,Overcast,40,2013-01-15 22:15:00
5:35 PM,50.5,48.2,92,30.12,5.0,NE,3.5,-,N/A,,Overcast,40,2013-01-15 22:35:00
5:55 PM,50.2,48.2,93,30.13,4.0,NE,5.8,-,N/A,,Overcast,40,2013-01-15 22:55:00
6:15 PM,50.0,47.8,92,30.13,4.0,NE,6.9,-,N/A,,Overcast,40,2013-01-15 23:15:00
6:35 PM,49.8,47.7,92,30.13,3.0,NNE,3.5,-,N/A,,Overcast,20,2013-01-15 23:35:00
7:15 PM,49.3,47.7,94,30.12,1.5,NE,4.6,-,N/A,,Overcast,40,2013-01-16 00:15:00
7:35 PM,49.1,47.8,95,30.12,1.0,NE,4.6,-,N/A,,Overcast,40,2013-01-16 00:35:00
7:55 PM,49.1,48.2,97,30.11,0.8,NE,5.8,-,N/A,,Overcast,40,2013-01-16 00:55:00
8:15 PM,49.1,48.2,97,30.10,0.5,NE,5.8,-,N/A,Fog,Fog,40,2013-01-16 01:15:00
8:35 PM,49.1,48.4,97,30.09,0.2,NE,3.5,-,N/A,Fog,Fog,50,2013-01-16 01:35:00
8:55 PM,49.1,48.4,97,30.10,0.2,NNW,4.6,-,N/A,Fog,Fog,330,2013-01-16 01:55:00
9:15 PM,49.1,48.2,97,30.10,0.2,Calm,Calm,-,N/A,Fog,Fog,0,2013-01-16 02:15:00
9:35 PM,49.1,48.4,97,30.08,0.2,Calm,Calm,-,N/A,Fog,Fog,0,2013-01-16 02:35:00
9:55 PM,49.1,48.4,97,30.08,0.2,Calm,Calm,-,N/A,Fog,Fog,0,2013-01-16 02:55:00
10:15 PM,49.1,48.4,97,30.07,0.2,Calm,Calm,-,N/A,Fog,Fog,0,2013-01-16 03:15:00
10:35 PM,49.1,48.4,97,30.06,0.2,Calm,Calm,-,N/A,Fog,Fog,0,2013-01-16 03:35:00
10:55 PM,49.3,48.6,97,30.06,0.2,Calm,Calm,-,N/A,Fog,Fog,0,2013-01-16 03:55:00
11:15 PM,49.3,48.6,97,30.08,0.2,NW,3.5,-,N/A,Fog,Fog,320,2013-01-16 04:15:00
11:35 PM,49.3,48.6,97,30.06,0.2,Calm,Calm,-,N/A,Fog,Fog,0,2013-01-16 04:35:00
11:55 PM,49.1,48.4,97,30.06,0.2,Calm,Calm,-,N/A,Fog,Fog,0,2013-01-16 04:55:00